sensor_id;sensor_type;location;lat;lon;timestamp;P1;durP1;ratioP1;P2;durP2;ratioP2
10471;SDS011;5283;48.876;8.962;2024-01-16T00:01:12;4.40;;;2.97;;
10471;SDS011;5283;48.876;8.962;2024-01-16T00:03:40;5.47;;;3.17;;
10471;SDS011;5283;48.876;8.962;2024-01-16T00:06:07;4.87;;;3.13;;
10471;SDS011;5283;48.876;8.962;2024-01-16T00:08:33;3.77;;;3.07;;
10471;SDS011;5283;48.876;8.962;2024-01-16T00:11:01;4.60;;;3.10;;
10471;SDS011;5283;48.876;8.962;2024-01-16T00:13:28;5.50;;;2.77;;
10471;SDS011;5283;48.876;8.962;2024-01-16T00:15:55;3.37;;;2.93;;
10471;SDS011;5283;48.876;8.962;2024-01-16T00:18:25;3.93;;;3.10;;
10471;SDS011;5283;48.876;8.962;2024-01-16T00:20:52;4.60;;;3.23;;
10471;SDS011;5283;48.876;8.962;2024-01-16T00:23:18;4.30;;;3.40;;
10471;SDS011;5283;48.876;8.962;2024-01-16T00:25:45;6.63;;;3.10;;
10471;SDS011;5283;48.876;8.962;2024-01-16T00:28:12;6.60;;;3.03;;
10471;SDS011;5283;48.876;8.962;2024-01-16T00:30:39;5.73;;;3.27;;
10471;SDS011;5283;48.876;8.962;2024-01-16T00:33:05;5.53;;;2.80;;
10471;SDS011;5283;48.876;8.962;2024-01-16T00:35:32;5.03;;;2.93;;
10471;SDS011;5283;48.876;8.962;2024-01-16T00:37:59;4.67;;;2.80;;
10471;SDS011;5283;48.876;8.962;2024-01-16T00:40:26;4.10;;;2.93;;
10471;SDS011;5283;48.876;8.962;2024-01-16T00:42:53;5.50;;;3.13;;
10471;SDS011;5283;48.876;8.962;2024-01-16T00:45:20;4.13;;;3.10;;
10471;SDS011;5283;48.876;8.962;2024-01-16T00:47:47;6.43;;;3.23;;
10471;SDS011;5283;48.876;8.962;2024-01-16T00:50:14;6.70;;;3.43;;
10471;SDS011;5283;48.876;8.962;2024-01-16T00:52:41;3.87;;;3.03;;
10471;SDS011;5283;48.876;8.962;2024-01-16T00:55:07;3.30;;;2.93;;
10471;SDS011;5283;48.876;8.962;2024-01-16T00:57:34;3.03;;;2.70;;
10471;SDS011;5283;48.876;8.962;2024-01-16T01:00:01;5.80;;;3.40;;
10471;SDS011;5283;48.876;8.962;2024-01-16T01:02:30;4.70;;;3.23;;
10471;SDS011;5283;48.876;8.962;2024-01-16T01:04:56;4.53;;;2.80;;
10471;SDS011;5283;48.876;8.962;2024-01-16T01:07:23;3.00;;;2.70;;
10471;SDS011;5283;48.876;8.962;2024-01-16T01:09:51;4.20;;;3.43;;
10471;SDS011;5283;48.876;8.962;2024-01-16T01:12:18;4.37;;;3.20;;
10471;SDS011;5283;48.876;8.962;2024-01-16T01:14:44;5.03;;;3.13;;
10471;SDS011;5283;48.876;8.962;2024-01-16T01:17:12;6.77;;;3.23;;
10471;SDS011;5283;48.876;8.962;2024-01-16T01:19:38;4.93;;;3.33;;
10471;SDS011;5283;48.876;8.962;2024-01-16T01:22:05;5.27;;;3.17;;
10471;SDS011;5283;48.876;8.962;2024-01-16T01:24:32;5.47;;;3.47;;
10471;SDS011;5283;48.876;8.962;2024-01-16T01:26:59;5.87;;;3.47;;
10471;SDS011;5283;48.876;8.962;2024-01-16T01:29:25;4.37;;;3.30;;
10471;SDS011;5283;48.876;8.962;2024-01-16T01:31:52;5.93;;;3.27;;
10471;SDS011;5283;48.876;8.962;2024-01-16T01:34:18;4.80;;;3.37;;
10471;SDS011;5283;48.876;8.962;2024-01-16T01:36:45;5.60;;;3.40;;
10471;SDS011;5283;48.876;8.962;2024-01-16T01:39:12;6.63;;;3.13;;
10471;SDS011;5283;48.876;8.962;2024-01-16T01:41:38;4.43;;;3.37;;
10471;SDS011;5283;48.876;8.962;2024-01-16T01:44:05;3.77;;;3.30;;
10471;SDS011;5283;48.876;8.962;2024-01-16T01:46:32;6.03;;;3.37;;
10471;SDS011;5283;48.876;8.962;2024-01-16T01:49:01;6.50;;;3.03;;
10471;SDS011;5283;48.876;8.962;2024-01-16T01:51:29;4.33;;;3.10;;
10471;SDS011;5283;48.876;8.962;2024-01-16T01:53:56;5.87;;;3.47;;
10471;SDS011;5283;48.876;8.962;2024-01-16T01:56:24;5.33;;;3.40;;
10471;SDS011;5283;48.876;8.962;2024-01-16T01:58:54;7.17;;;3.37;;
10471;SDS011;5283;48.876;8.962;2024-01-16T02:01:23;6.77;;;3.63;;
10471;SDS011;5283;48.876;8.962;2024-01-16T02:03:51;6.87;;;3.60;;
10471;SDS011;5283;48.876;8.962;2024-01-16T02:06:20;6.13;;;2.93;;
10471;SDS011;5283;48.876;8.962;2024-01-16T02:08:47;4.73;;;3.17;;
10471;SDS011;5283;48.876;8.962;2024-01-16T02:11:15;3.80;;;3.23;;
10471;SDS011;5283;48.876;8.962;2024-01-16T02:13:41;4.50;;;3.30;;
10471;SDS011;5283;48.876;8.962;2024-01-16T02:16:18;3.97;;;3.20;;
10471;SDS011;5283;48.876;8.962;2024-01-16T02:18:48;7.00;;;3.50;;
10471;SDS011;5283;48.876;8.962;2024-01-16T02:21:17;4.27;;;3.40;;
10471;SDS011;5283;48.876;8.962;2024-01-16T02:23:47;5.20;;;3.37;;
10471;SDS011;5283;48.876;8.962;2024-01-16T02:26:14;6.60;;;3.13;;
10471;SDS011;5283;48.876;8.962;2024-01-16T02:28:42;4.20;;;3.37;;
10471;SDS011;5283;48.876;8.962;2024-01-16T02:31:08;4.10;;;3.07;;
10471;SDS011;5283;48.876;8.962;2024-01-16T02:33:35;7.20;;;3.73;;
10471;SDS011;5283;48.876;8.962;2024-01-16T02:36:02;4.53;;;3.07;;
10471;SDS011;5283;48.876;8.962;2024-01-16T02:38:29;6.47;;;3.00;;
10471;SDS011;5283;48.876;8.962;2024-01-16T02:40:56;6.67;;;3.33;;
10471;SDS011;5283;48.876;8.962;2024-01-16T02:43:23;6.33;;;3.43;;
10471;SDS011;5283;48.876;8.962;2024-01-16T02:45:52;6.10;;;3.23;;
10471;SDS011;5283;48.876;8.962;2024-01-16T02:48:19;6.07;;;3.10;;
10471;SDS011;5283;48.876;8.962;2024-01-16T02:50:46;4.87;;;3.10;;
10471;SDS011;5283;48.876;8.962;2024-01-16T02:53:13;4.87;;;2.83;;
10471;SDS011;5283;48.876;8.962;2024-01-16T02:55:40;3.97;;;2.87;;
10471;SDS011;5283;48.876;8.962;2024-01-16T02:58:07;5.70;;;3.33;;
10471;SDS011;5283;48.876;8.962;2024-01-16T03:00:33;5.37;;;3.37;;
10471;SDS011;5283;48.876;8.962;2024-01-16T03:03:00;6.90;;;3.57;;
10471;SDS011;5283;48.876;8.962;2024-01-16T03:05:27;4.70;;;3.23;;
10471;SDS011;5283;48.876;8.962;2024-01-16T03:07:54;7.43;;;3.50;;
10471;SDS011;5283;48.876;8.962;2024-01-16T03:10:21;6.33;;;3.27;;
10471;SDS011;5283;48.876;8.962;2024-01-16T03:12:48;5.70;;;3.30;;
10471;SDS011;5283;48.876;8.962;2024-01-16T03:15:14;4.60;;;3.13;;
10471;SDS011;5283;48.876;8.962;2024-01-16T03:17:41;4.90;;;3.43;;
10471;SDS011;5283;48.876;8.962;2024-01-16T03:20:08;5.63;;;3.53;;
10471;SDS011;5283;48.876;8.962;2024-01-16T03:22:35;6.00;;;3.50;;
10471;SDS011;5283;48.876;8.962;2024-01-16T03:25:01;6.33;;;3.67;;
10471;SDS011;5283;48.876;8.962;2024-01-16T03:27:28;4.50;;;3.60;;
10471;SDS011;5283;48.876;8.962;2024-01-16T03:29:55;3.40;;;2.90;;
10471;SDS011;5283;48.876;8.962;2024-01-16T03:32:22;5.13;;;3.40;;
10471;SDS011;5283;48.876;8.962;2024-01-16T03:34:49;3.40;;;2.67;;
10471;SDS011;5283;48.876;8.962;2024-01-16T03:37:15;5.83;;;3.50;;
10471;SDS011;5283;48.876;8.962;2024-01-16T03:39:42;3.47;;;2.80;;
10471;SDS011;5283;48.876;8.962;2024-01-16T03:42:11;6.73;;;3.13;;
10471;SDS011;5283;48.876;8.962;2024-01-16T03:44:41;4.40;;;3.50;;
10471;SDS011;5283;48.876;8.962;2024-01-16T03:47:08;5.67;;;3.10;;
10471;SDS011;5283;48.876;8.962;2024-01-16T03:49:35;4.60;;;3.40;;
10471;SDS011;5283;48.876;8.962;2024-01-16T03:52:02;4.87;;;3.20;;
10471;SDS011;5283;48.876;8.962;2024-01-16T03:54:28;4.50;;;3.50;;
10471;SDS011;5283;48.876;8.962;2024-01-16T03:56:55;6.03;;;3.47;;
10471;SDS011;5283;48.876;8.962;2024-01-16T03:59:22;6.40;;;3.70;;
10471;SDS011;5283;48.876;8.962;2024-01-16T04:01:49;4.50;;;3.40;;
10471;SDS011;5283;48.876;8.962;2024-01-16T04:04:16;7.07;;;3.43;;
10471;SDS011;5283;48.876;8.962;2024-01-16T04:06:42;6.40;;;4.20;;
10471;SDS011;5283;48.876;8.962;2024-01-16T04:09:09;9.43;;;4.30;;
10471;SDS011;5283;48.876;8.962;2024-01-16T04:11:36;5.93;;;3.60;;
10471;SDS011;5283;48.876;8.962;2024-01-16T04:14:02;5.97;;;3.63;;
10471;SDS011;5283;48.876;8.962;2024-01-16T04:16:30;7.47;;;3.90;;
10471;SDS011;5283;48.876;8.962;2024-01-16T04:18:56;7.47;;;3.70;;
10471;SDS011;5283;48.876;8.962;2024-01-16T04:21:23;6.47;;;3.77;;
10471;SDS011;5283;48.876;8.962;2024-01-16T04:23:50;6.20;;;3.40;;
10471;SDS011;5283;48.876;8.962;2024-01-16T04:26:16;4.43;;;3.20;;
10471;SDS011;5283;48.876;8.962;2024-01-16T04:28:43;8.53;;;3.40;;
10471;SDS011;5283;48.876;8.962;2024-01-16T04:31:10;6.83;;;3.63;;
10471;SDS011;5283;48.876;8.962;2024-01-16T04:33:39;7.20;;;3.90;;
10471;SDS011;5283;48.876;8.962;2024-01-16T04:36:06;4.77;;;3.40;;
10471;SDS011;5283;48.876;8.962;2024-01-16T04:38:33;5.00;;;3.17;;
10471;SDS011;5283;48.876;8.962;2024-01-16T04:41:03;5.67;;;3.43;;
10471;SDS011;5283;48.876;8.962;2024-01-16T04:43:30;4.37;;;3.20;;
10471;SDS011;5283;48.876;8.962;2024-01-16T04:45:57;5.33;;;3.40;;
10471;SDS011;5283;48.876;8.962;2024-01-16T04:48:25;7.93;;;3.63;;
10471;SDS011;5283;48.876;8.962;2024-01-16T04:50:51;5.47;;;3.87;;
10471;SDS011;5283;48.876;8.962;2024-01-16T04:53:18;8.17;;;3.93;;
10471;SDS011;5283;48.876;8.962;2024-01-16T04:55:45;7.30;;;4.40;;
10471;SDS011;5283;48.876;8.962;2024-01-16T04:58:11;7.70;;;3.73;;
10471;SDS011;5283;48.876;8.962;2024-01-16T05:00:38;6.60;;;3.83;;
10471;SDS011;5283;48.876;8.962;2024-01-16T05:03:05;6.37;;;3.53;;
10471;SDS011;5283;48.876;8.962;2024-01-16T05:05:31;4.93;;;3.60;;
10471;SDS011;5283;48.876;8.962;2024-01-16T05:08:00;8.00;;;3.90;;
10471;SDS011;5283;48.876;8.962;2024-01-16T05:10:28;7.13;;;3.40;;
10471;SDS011;5283;48.876;8.962;2024-01-16T05:12:54;7.20;;;3.50;;
10471;SDS011;5283;48.876;8.962;2024-01-16T05:15:21;5.37;;;3.40;;
10471;SDS011;5283;48.876;8.962;2024-01-16T05:17:48;3.83;;;3.23;;
10471;SDS011;5283;48.876;8.962;2024-01-16T05:20:14;6.97;;;4.00;;
10471;SDS011;5283;48.876;8.962;2024-01-16T05:22:41;5.90;;;3.60;;
10471;SDS011;5283;48.876;8.962;2024-01-16T05:25:08;8.33;;;3.93;;
10471;SDS011;5283;48.876;8.962;2024-01-16T05:27:35;6.47;;;4.10;;
10471;SDS011;5283;48.876;8.962;2024-01-16T05:30:02;5.37;;;3.33;;
10471;SDS011;5283;48.876;8.962;2024-01-16T05:32:29;5.87;;;4.23;;
10471;SDS011;5283;48.876;8.962;2024-01-16T05:34:56;7.50;;;4.10;;
10471;SDS011;5283;48.876;8.962;2024-01-16T05:37:22;8.40;;;4.40;;
10471;SDS011;5283;48.876;8.962;2024-01-16T05:39:49;8.10;;;4.07;;
10471;SDS011;5283;48.876;8.962;2024-01-16T05:42:16;7.10;;;4.17;;
10471;SDS011;5283;48.876;8.962;2024-01-16T05:44:43;9.10;;;4.67;;
10471;SDS011;5283;48.876;8.962;2024-01-16T05:47:10;7.93;;;4.90;;
10471;SDS011;5283;48.876;8.962;2024-01-16T05:49:37;8.37;;;4.60;;
10471;SDS011;5283;48.876;8.962;2024-01-16T05:52:04;9.80;;;4.53;;
10471;SDS011;5283;48.876;8.962;2024-01-16T05:54:31;8.37;;;4.30;;
10471;SDS011;5283;48.876;8.962;2024-01-16T05:56:57;8.27;;;4.53;;
10471;SDS011;5283;48.876;8.962;2024-01-16T05:59:24;6.33;;;4.30;;
10471;SDS011;5283;48.876;8.962;2024-01-16T06:01:51;7.77;;;4.13;;
10471;SDS011;5283;48.876;8.962;2024-01-16T06:04:18;7.53;;;4.57;;
10471;SDS011;5283;48.876;8.962;2024-01-16T06:06:45;9.77;;;4.47;;
10471;SDS011;5283;48.876;8.962;2024-01-16T06:09:13;11.53;;;4.67;;
10471;SDS011;5283;48.876;8.962;2024-01-16T06:11:40;9.13;;;4.87;;
10471;SDS011;5283;48.876;8.962;2024-01-16T06:14:07;7.83;;;4.77;;
10471;SDS011;5283;48.876;8.962;2024-01-16T06:16:34;7.33;;;4.13;;
10471;SDS011;5283;48.876;8.962;2024-01-16T06:19:01;7.07;;;4.17;;
10471;SDS011;5283;48.876;8.962;2024-01-16T06:21:28;9.10;;;4.23;;
10471;SDS011;5283;48.876;8.962;2024-01-16T06:23:55;8.57;;;4.87;;
10471;SDS011;5283;48.876;8.962;2024-01-16T06:26:22;8.53;;;4.27;;
10471;SDS011;5283;48.876;8.962;2024-01-16T06:28:48;9.10;;;3.60;;
10471;SDS011;5283;48.876;8.962;2024-01-16T06:31:16;6.03;;;4.13;;
10471;SDS011;5283;48.876;8.962;2024-01-16T06:33:43;7.63;;;4.40;;
10471;SDS011;5283;48.876;8.962;2024-01-16T06:36:09;10.23;;;3.67;;
10471;SDS011;5283;48.876;8.962;2024-01-16T06:38:37;8.50;;;4.07;;
10471;SDS011;5283;48.876;8.962;2024-01-16T06:41:06;4.90;;;3.73;;
10471;SDS011;5283;48.876;8.962;2024-01-16T06:43:32;7.87;;;4.13;;
10471;SDS011;5283;48.876;8.962;2024-01-16T06:45:59;4.97;;;3.40;;
10471;SDS011;5283;48.876;8.962;2024-01-16T06:48:26;9.33;;;4.17;;
10471;SDS011;5283;48.876;8.962;2024-01-16T06:50:53;9.70;;;4.30;;
10471;SDS011;5283;48.876;8.962;2024-01-16T06:53:19;6.83;;;3.87;;
10471;SDS011;5283;48.876;8.962;2024-01-16T06:55:46;7.33;;;3.80;;
10471;SDS011;5283;48.876;8.962;2024-01-16T06:58:13;8.27;;;4.10;;
10471;SDS011;5283;48.876;8.962;2024-01-16T07:00:40;7.17;;;4.67;;
10471;SDS011;5283;48.876;8.962;2024-01-16T07:03:11;6.53;;;4.10;;
10471;SDS011;5283;48.876;8.962;2024-01-16T07:05:37;5.03;;;3.90;;
10471;SDS011;5283;48.876;8.962;2024-01-16T07:08:04;11.63;;;4.20;;
10471;SDS011;5283;48.876;8.962;2024-01-16T07:10:31;7.20;;;3.70;;
10471;SDS011;5283;48.876;8.962;2024-01-16T07:12:58;6.23;;;3.93;;
10471;SDS011;5283;48.876;8.962;2024-01-16T07:15:25;6.50;;;3.53;;
10471;SDS011;5283;48.876;8.962;2024-01-16T07:17:52;7.07;;;4.00;;
10471;SDS011;5283;48.876;8.962;2024-01-16T07:20:18;4.83;;;3.40;;
10471;SDS011;5283;48.876;8.962;2024-01-16T07:22:45;5.47;;;3.20;;
10471;SDS011;5283;48.876;8.962;2024-01-16T07:25:12;5.43;;;3.60;;
10471;SDS011;5283;48.876;8.962;2024-01-16T07:27:39;3.87;;;3.03;;
10471;SDS011;5283;48.876;8.962;2024-01-16T07:30:08;5.20;;;3.07;;
10471;SDS011;5283;48.876;8.962;2024-01-16T07:32:36;4.27;;;3.00;;
10471;SDS011;5283;48.876;8.962;2024-01-16T07:35:03;5.20;;;2.90;;
10471;SDS011;5283;48.876;8.962;2024-01-16T07:37:31;5.37;;;3.03;;
10471;SDS011;5283;48.876;8.962;2024-01-16T07:39:58;7.73;;;3.10;;
10471;SDS011;5283;48.876;8.962;2024-01-16T07:42:25;3.33;;;3.00;;
10471;SDS011;5283;48.876;8.962;2024-01-16T07:44:52;5.47;;;3.60;;
10471;SDS011;5283;48.876;8.962;2024-01-16T07:47:19;7.40;;;3.83;;
10471;SDS011;5283;48.876;8.962;2024-01-16T07:49:46;4.00;;;2.97;;
10471;SDS011;5283;48.876;8.962;2024-01-16T07:52:13;7.27;;;3.13;;
10471;SDS011;5283;48.876;8.962;2024-01-16T07:54:40;5.67;;;3.07;;
10471;SDS011;5283;48.876;8.962;2024-01-16T07:57:06;5.50;;;3.07;;
10471;SDS011;5283;48.876;8.962;2024-01-16T07:59:33;4.37;;;3.10;;
10471;SDS011;5283;48.876;8.962;2024-01-16T08:02:00;4.10;;;2.70;;
10471;SDS011;5283;48.876;8.962;2024-01-16T08:04:27;4.80;;;3.13;;
10471;SDS011;5283;48.876;8.962;2024-01-16T08:06:54;4.83;;;3.17;;
10471;SDS011;5283;48.876;8.962;2024-01-16T08:09:21;5.00;;;3.03;;
10471;SDS011;5283;48.876;8.962;2024-01-16T08:11:48;3.57;;;2.80;;
10471;SDS011;5283;48.876;8.962;2024-01-16T08:14:14;3.33;;;2.43;;
10471;SDS011;5283;48.876;8.962;2024-01-16T08:16:41;3.77;;;2.93;;
10471;SDS011;5283;48.876;8.962;2024-01-16T08:19:08;5.33;;;2.90;;
10471;SDS011;5283;48.876;8.962;2024-01-16T08:21:34;4.70;;;2.37;;
10471;SDS011;5283;48.876;8.962;2024-01-16T08:24:02;3.73;;;2.60;;
10471;SDS011;5283;48.876;8.962;2024-01-16T08:26:29;3.93;;;2.73;;
10471;SDS011;5283;48.876;8.962;2024-01-16T08:28:55;5.50;;;3.07;;
10471;SDS011;5283;48.876;8.962;2024-01-16T08:31:23;3.40;;;2.50;;
10471;SDS011;5283;48.876;8.962;2024-01-16T08:33:50;4.20;;;2.60;;
10471;SDS011;5283;48.876;8.962;2024-01-16T08:36:17;5.07;;;2.90;;
10471;SDS011;5283;48.876;8.962;2024-01-16T08:38:44;4.20;;;2.77;;
10471;SDS011;5283;48.876;8.962;2024-01-16T08:41:11;4.43;;;3.10;;
10471;SDS011;5283;48.876;8.962;2024-01-16T08:43:37;4.70;;;2.80;;
10471;SDS011;5283;48.876;8.962;2024-01-16T08:46:04;3.30;;;3.00;;
10471;SDS011;5283;48.876;8.962;2024-01-16T08:48:31;5.50;;;2.90;;
10471;SDS011;5283;48.876;8.962;2024-01-16T08:50:57;4.23;;;2.90;;
10471;SDS011;5283;48.876;8.962;2024-01-16T08:53:27;8.20;;;3.40;;
10471;SDS011;5283;48.876;8.962;2024-01-16T08:55:54;4.53;;;2.97;;
10471;SDS011;5283;48.876;8.962;2024-01-16T08:58:20;5.23;;;3.13;;
10471;SDS011;5283;48.876;8.962;2024-01-16T09:00:47;4.27;;;2.80;;
10471;SDS011;5283;48.876;8.962;2024-01-16T09:03:14;4.20;;;3.03;;
10471;SDS011;5283;48.876;8.962;2024-01-16T09:05:40;6.93;;;3.40;;
10471;SDS011;5283;48.876;8.962;2024-01-16T09:08:09;5.17;;;3.30;;
10471;SDS011;5283;48.876;8.962;2024-01-16T09:10:36;5.50;;;3.10;;
10471;SDS011;5283;48.876;8.962;2024-01-16T09:13:03;6.10;;;3.57;;
10471;SDS011;5283;48.876;8.962;2024-01-16T09:15:30;6.27;;;3.47;;
10471;SDS011;5283;48.876;8.962;2024-01-16T09:17:56;3.80;;;2.63;;
10471;SDS011;5283;48.876;8.962;2024-01-16T09:20:23;4.90;;;2.90;;
10471;SDS011;5283;48.876;8.962;2024-01-16T09:22:50;4.73;;;3.10;;
10471;SDS011;5283;48.876;8.962;2024-01-16T09:25:16;4.10;;;2.93;;
10471;SDS011;5283;48.876;8.962;2024-01-16T09:27:43;3.93;;;2.77;;
10471;SDS011;5283;48.876;8.962;2024-01-16T09:30:10;4.63;;;3.03;;
10471;SDS011;5283;48.876;8.962;2024-01-16T09:32:38;5.23;;;3.10;;
10471;SDS011;5283;48.876;8.962;2024-01-16T09:35:05;4.90;;;3.00;;
10471;SDS011;5283;48.876;8.962;2024-01-16T09:37:35;4.37;;;3.10;;
10471;SDS011;5283;48.876;8.962;2024-01-16T09:40:02;5.93;;;3.03;;
10471;SDS011;5283;48.876;8.962;2024-01-16T09:42:31;6.93;;;2.60;;
10471;SDS011;5283;48.876;8.962;2024-01-16T09:44:58;4.83;;;2.70;;
10471;SDS011;5283;48.876;8.962;2024-01-16T09:47:30;4.73;;;3.20;;
10471;SDS011;5283;48.876;8.962;2024-01-16T09:49:59;6.00;;;2.80;;
10471;SDS011;5283;48.876;8.962;2024-01-16T09:52:29;2.87;;;2.40;;
10471;SDS011;5283;48.876;8.962;2024-01-16T09:54:55;4.23;;;3.00;;
10471;SDS011;5283;48.876;8.962;2024-01-16T09:57:24;3.60;;;2.80;;
10471;SDS011;5283;48.876;8.962;2024-01-16T09:59:52;5.83;;;3.97;;
10471;SDS011;5283;48.876;8.962;2024-01-16T10:02:19;4.27;;;2.80;;
10471;SDS011;5283;48.876;8.962;2024-01-16T10:04:47;2.53;;;2.33;;
10471;SDS011;5283;48.876;8.962;2024-01-16T10:07:14;5.57;;;2.80;;
10471;SDS011;5283;48.876;8.962;2024-01-16T10:09:43;4.37;;;2.80;;
10471;SDS011;5283;48.876;8.962;2024-01-16T10:12:09;4.77;;;2.93;;
10471;SDS011;5283;48.876;8.962;2024-01-16T10:14:37;4.50;;;2.80;;
10471;SDS011;5283;48.876;8.962;2024-01-16T10:17:05;3.87;;;2.70;;
10471;SDS011;5283;48.876;8.962;2024-01-16T10:19:32;4.83;;;2.63;;
10471;SDS011;5283;48.876;8.962;2024-01-16T10:22:04;4.13;;;2.40;;
10471;SDS011;5283;48.876;8.962;2024-01-16T10:24:32;3.73;;;2.60;;
10471;SDS011;5283;48.876;8.962;2024-01-16T10:27:01;4.07;;;2.40;;
10471;SDS011;5283;48.876;8.962;2024-01-16T10:29:32;5.10;;;3.20;;
10471;SDS011;5283;48.876;8.962;2024-01-16T10:32:01;3.93;;;2.70;;
10471;SDS011;5283;48.876;8.962;2024-01-16T10:34:28;4.77;;;2.80;;
10471;SDS011;5283;48.876;8.962;2024-01-16T10:37:00;3.83;;;2.70;;
10471;SDS011;5283;48.876;8.962;2024-01-16T10:39:27;4.13;;;3.10;;
10471;SDS011;5283;48.876;8.962;2024-01-16T10:41:57;4.53;;;2.70;;
10471;SDS011;5283;48.876;8.962;2024-01-16T10:44:25;3.30;;;2.50;;
10471;SDS011;5283;48.876;8.962;2024-01-16T10:47:14;3.30;;;2.50;;
10471;SDS011;5283;48.876;8.962;2024-01-16T10:49:42;4.70;;;2.50;;
10471;SDS011;5283;48.876;8.962;2024-01-16T10:52:11;3.13;;;2.40;;
10471;SDS011;5283;48.876;8.962;2024-01-16T10:54:40;4.87;;;2.40;;
10471;SDS011;5283;48.876;8.962;2024-01-16T10:57:07;3.00;;;2.27;;
10471;SDS011;5283;48.876;8.962;2024-01-16T10:59:38;3.33;;;1.83;;
10471;SDS011;5283;48.876;8.962;2024-01-16T11:02:12;3.07;;;1.63;;
10471;SDS011;5283;48.876;8.962;2024-01-16T11:04:44;3.70;;;1.83;;
10471;SDS011;5283;48.876;8.962;2024-01-16T11:07:13;2.40;;;1.53;;
10471;SDS011;5283;48.876;8.962;2024-01-16T11:09:40;2.30;;;1.60;;
10471;SDS011;5283;48.876;8.962;2024-01-16T11:12:08;2.93;;;1.43;;
10471;SDS011;5283;48.876;8.962;2024-01-16T11:14:37;3.03;;;1.90;;
10471;SDS011;5283;48.876;8.962;2024-01-16T11:17:04;2.97;;;1.57;;
10471;SDS011;5283;48.876;8.962;2024-01-16T11:19:33;4.00;;;1.53;;
10471;SDS011;5283;48.876;8.962;2024-01-16T11:22:03;1.40;;;1.07;;
10471;SDS011;5283;48.876;8.962;2024-01-16T11:24:31;4.20;;;1.10;;
10471;SDS011;5283;48.876;8.962;2024-01-16T11:26:57;3.93;;;1.80;;
10471;SDS011;5283;48.876;8.962;2024-01-16T11:31:54;3.07;;;1.50;;
10471;SDS011;5283;48.876;8.962;2024-01-16T11:37:08;2.30;;;1.37;;
10471;SDS011;5283;48.876;8.962;2024-01-16T11:39:36;2.80;;;0.97;;
10471;SDS011;5283;48.876;8.962;2024-01-16T11:42:02;2.67;;;1.40;;
10471;SDS011;5283;48.876;8.962;2024-01-16T11:44:51;5.30;;;1.67;;
10471;SDS011;5283;48.876;8.962;2024-01-16T11:47:17;2.63;;;1.50;;
10471;SDS011;5283;48.876;8.962;2024-01-16T11:49:46;4.10;;;2.00;;
10471;SDS011;5283;48.876;8.962;2024-01-16T11:52:40;3.77;;;1.40;;
10471;SDS011;5283;48.876;8.962;2024-01-16T11:55:30;3.20;;;1.80;;
10471;SDS011;5283;48.876;8.962;2024-01-16T12:00:58;2.60;;;1.10;;
10471;SDS011;5283;48.876;8.962;2024-01-16T12:03:25;2.50;;;1.57;;
10471;SDS011;5283;48.876;8.962;2024-01-16T12:05:57;1.43;;;1.17;;
10471;SDS011;5283;48.876;8.962;2024-01-16T12:08:25;2.23;;;1.23;;
10471;SDS011;5283;48.876;8.962;2024-01-16T12:10:52;3.60;;;2.20;;
10471;SDS011;5283;48.876;8.962;2024-01-16T12:13:19;1.70;;;0.90;;
10471;SDS011;5283;48.876;8.962;2024-01-16T12:15:47;2.73;;;1.23;;
10471;SDS011;5283;48.876;8.962;2024-01-16T12:18:19;2.57;;;1.30;;
10471;SDS011;5283;48.876;8.962;2024-01-16T12:20:48;1.60;;;1.10;;
10471;SDS011;5283;48.876;8.962;2024-01-16T12:23:15;1.93;;;0.93;;
10471;SDS011;5283;48.876;8.962;2024-01-16T12:25:42;1.73;;;1.40;;
10471;SDS011;5283;48.876;8.962;2024-01-16T12:28:09;3.23;;;1.33;;
10471;SDS011;5283;48.876;8.962;2024-01-16T12:30:37;2.90;;;1.40;;
10471;SDS011;5283;48.876;8.962;2024-01-16T12:33:11;2.63;;;1.20;;
10471;SDS011;5283;48.876;8.962;2024-01-16T12:35:42;3.80;;;1.67;;
10471;SDS011;5283;48.876;8.962;2024-01-16T12:38:11;2.87;;;1.13;;
10471;SDS011;5283;48.876;8.962;2024-01-16T12:40:40;2.40;;;1.20;;
10471;SDS011;5283;48.876;8.962;2024-01-16T12:43:17;1.20;;;0.73;;
10471;SDS011;5283;48.876;8.962;2024-01-16T12:45:45;2.20;;;1.53;;
10471;SDS011;5283;48.876;8.962;2024-01-16T12:48:12;4.77;;;1.10;;
10471;SDS011;5283;48.876;8.962;2024-01-16T12:50:38;1.90;;;1.10;;
10471;SDS011;5283;48.876;8.962;2024-01-16T12:53:09;2.47;;;0.83;;
10471;SDS011;5283;48.876;8.962;2024-01-16T12:55:38;1.63;;;1.03;;
10471;SDS011;5283;48.876;8.962;2024-01-16T12:58:16;2.30;;;1.20;;
10471;SDS011;5283;48.876;8.962;2024-01-16T13:00:48;3.30;;;1.37;;
10471;SDS011;5283;48.876;8.962;2024-01-16T13:03:17;2.97;;;1.60;;
10471;SDS011;5283;48.876;8.962;2024-01-16T13:05:52;2.60;;;1.30;;
10471;SDS011;5283;48.876;8.962;2024-01-16T13:08:27;3.00;;;1.70;;
10471;SDS011;5283;48.876;8.962;2024-01-16T13:11:01;1.63;;;1.33;;
10471;SDS011;5283;48.876;8.962;2024-01-16T13:13:29;1.73;;;1.10;;
10471;SDS011;5283;48.876;8.962;2024-01-16T13:15:57;1.73;;;1.30;;
10471;SDS011;5283;48.876;8.962;2024-01-16T13:18:25;1.83;;;1.13;;
10471;SDS011;5283;48.876;8.962;2024-01-16T13:20:54;2.70;;;1.50;;
10471;SDS011;5283;48.876;8.962;2024-01-16T13:23:23;3.80;;;1.77;;
10471;SDS011;5283;48.876;8.962;2024-01-16T13:25:53;1.70;;;1.60;;
10471;SDS011;5283;48.876;8.962;2024-01-16T13:28:29;1.77;;;1.30;;
10471;SDS011;5283;48.876;8.962;2024-01-16T13:30:56;3.67;;;1.80;;
10471;SDS011;5283;48.876;8.962;2024-01-16T13:33:24;1.93;;;1.60;;
10471;SDS011;5283;48.876;8.962;2024-01-16T13:35:53;2.40;;;1.50;;
10471;SDS011;5283;48.876;8.962;2024-01-16T13:38:21;3.20;;;1.40;;
10471;SDS011;5283;48.876;8.962;2024-01-16T13:40:48;2.17;;;1.37;;
10471;SDS011;5283;48.876;8.962;2024-01-16T13:43:16;2.67;;;1.60;;
10471;SDS011;5283;48.876;8.962;2024-01-16T13:45:43;1.90;;;1.60;;
10471;SDS011;5283;48.876;8.962;2024-01-16T13:48:10;2.87;;;1.43;;
10471;SDS011;5283;48.876;8.962;2024-01-16T13:50:37;3.27;;;1.70;;
10471;SDS011;5283;48.876;8.962;2024-01-16T13:53:04;1.80;;;1.33;;
10471;SDS011;5283;48.876;8.962;2024-01-16T13:55:31;2.63;;;1.63;;
10471;SDS011;5283;48.876;8.962;2024-01-16T13:58:00;2.70;;;1.33;;
10471;SDS011;5283;48.876;8.962;2024-01-16T14:00:27;3.17;;;1.87;;
10471;SDS011;5283;48.876;8.962;2024-01-16T14:02:54;4.33;;;1.67;;
10471;SDS011;5283;48.876;8.962;2024-01-16T14:05:21;3.10;;;1.60;;
10471;SDS011;5283;48.876;8.962;2024-01-16T14:07:49;2.53;;;1.23;;
10471;SDS011;5283;48.876;8.962;2024-01-16T14:10:17;3.30;;;2.00;;
10471;SDS011;5283;48.876;8.962;2024-01-16T14:12:45;3.40;;;1.40;;
10471;SDS011;5283;48.876;8.962;2024-01-16T14:15:14;1.90;;;1.37;;
10471;SDS011;5283;48.876;8.962;2024-01-16T14:17:46;2.33;;;1.60;;
10471;SDS011;5283;48.876;8.962;2024-01-16T14:20:14;3.07;;;1.70;;
10471;SDS011;5283;48.876;8.962;2024-01-16T14:22:42;1.57;;;1.23;;
10471;SDS011;5283;48.876;8.962;2024-01-16T14:25:12;3.43;;;1.70;;
10471;SDS011;5283;48.876;8.962;2024-01-16T14:27:41;2.67;;;1.70;;
10471;SDS011;5283;48.876;8.962;2024-01-16T14:30:13;2.37;;;1.73;;
10471;SDS011;5283;48.876;8.962;2024-01-16T14:32:41;4.13;;;1.73;;
10471;SDS011;5283;48.876;8.962;2024-01-16T14:35:10;2.23;;;1.47;;
10471;SDS011;5283;48.876;8.962;2024-01-16T14:37:39;5.43;;;1.90;;
10471;SDS011;5283;48.876;8.962;2024-01-16T14:40:09;4.57;;;2.27;;
10471;SDS011;5283;48.876;8.962;2024-01-16T14:42:39;4.13;;;1.70;;
10471;SDS011;5283;48.876;8.962;2024-01-16T14:45:06;2.13;;;1.50;;
10471;SDS011;5283;48.876;8.962;2024-01-16T14:47:34;2.13;;;1.60;;
10471;SDS011;5283;48.876;8.962;2024-01-16T14:50:01;4.47;;;1.77;;
10471;SDS011;5283;48.876;8.962;2024-01-16T14:52:30;1.87;;;1.63;;
10471;SDS011;5283;48.876;8.962;2024-01-16T14:55:00;2.87;;;1.60;;
10471;SDS011;5283;48.876;8.962;2024-01-16T14:57:28;2.23;;;1.43;;
10471;SDS011;5283;48.876;8.962;2024-01-16T14:59:56;4.67;;;1.80;;
10471;SDS011;5283;48.876;8.962;2024-01-16T15:02:24;2.13;;;1.10;;
10471;SDS011;5283;48.876;8.962;2024-01-16T15:04:51;2.00;;;1.40;;
10471;SDS011;5283;48.876;8.962;2024-01-16T15:07:17;1.50;;;1.40;;
10471;SDS011;5283;48.876;8.962;2024-01-16T15:09:44;3.97;;;1.80;;
10471;SDS011;5283;48.876;8.962;2024-01-16T15:12:11;2.10;;;1.57;;